Holman, Texas
Current Conditions -  °F | °C
As of 12:15 PM on Thursday 29 Jan 2015 (Local Time) from K3T5 Reporting Station
Broken Clouds Broken Clouds  
Wind Chill: 69°   Ceiling: 3000
Heat Index: 69°   Visibility: 10mi
Dew Point: 62°   Wind: 6mph
Humidity: 77%   Direction: 250°WSW
Pressure: 30.24"   Gusts: NA
Location:  29.8569°N, 96.9311°W
Report Text: K3T5 291815Z AUTO 25005KT 10SM SCT017 SCT022 BKN030 21/17 A3024 RMK AO2 T02060165
Loading
Personal Weather Stations






























Interactive Weather Map New forecast layout! Learn more

10-Day Weather Forecast

Advertisements
Track Severe Weather on mobile